createdAt,value
2022-12-01T00:01:24.303Z,82.50
2022-12-01T00:03:51.302Z,91.67
2022-12-01T00:06:20.763Z,77.73
2022-12-01T00:09:09.384Z,87.13
2022-12-01T00:11:38.189Z,75.70
2022-12-01T00:14:05.756Z,93.73
2022-12-01T00:16:33.269Z,83.20
2022-12-01T00:19:00.490Z,80.33
2022-12-01T00:21:28.475Z,93.60
2022-12-01T00:23:57.616Z,89.03
2022-12-01T00:26:25.800Z,90.40
2022-12-01T00:28:58.107Z,79.80
2022-12-01T00:31:26.107Z,77.77
2022-12-01T00:33:53.504Z,86.70
2022-12-01T00:36:21.289Z,88.60
2022-12-01T00:38:52.241Z,86.20
2022-12-01T00:41:19.200Z,101.47
2022-12-01T00:43:46.079Z,90.87
2022-12-01T00:46:13.050Z,95.03
2022-12-01T00:48:40.074Z,75.23
2022-12-01T00:51:07.081Z,78.40
2022-12-01T00:53:33.997Z,90.67
2022-12-01T00:56:00.977Z,89.83
2022-12-01T00:58:27.876Z,85.43
2022-12-01T01:01:00.314Z,77.47
2022-12-01T01:03:28.815Z,72.57
2022-12-01T01:05:55.725Z,83.17
2022-12-01T01:08:22.682Z,71.37
2022-12-01T01:10:49.964Z,72.30
2022-12-01T01:13:16.865Z,75.30
2022-12-01T01:15:43.805Z,69.57
2022-12-01T01:18:12.151Z,64.93
2022-12-01T01:20:39.097Z,63.27
2022-12-01T01:23:06.019Z,57.30
2022-12-01T01:25:33.609Z,78.17
2022-12-01T01:28:00.734Z,74.83
2022-12-01T01:30:28.096Z,75.90
2022-12-01T01:32:55.151Z,59.83
2022-12-01T01:35:22.301Z,79.37
2022-12-01T01:37:50.956Z,67.67
2022-12-01T01:40:18.786Z,72.63
2022-12-01T01:42:45.932Z,69.33
2022-12-01T01:45:25.433Z,76.93
2022-12-01T01:47:53.931Z,85.60
2022-12-01T01:50:25.218Z,80.27
2022-12-01T01:55:34.064Z,68.33
2022-12-01T01:58:03.228Z,70.93
2022-12-01T02:00:30.273Z,78.57
2022-12-01T02:02:57.922Z,70.30
2022-12-01T02:05:35.887Z,51.90
2022-12-01T02:08:04.617Z,64.07
2022-12-01T02:10:43.360Z,75.47
2022-12-01T02:13:44.154Z,68.83
2022-12-01T02:16:39.033Z,75.67
2022-12-01T02:19:57.822Z,74.77
2022-12-01T02:23:08.086Z,72.13
2022-12-01T02:26:08.979Z,66.50
2022-12-01T02:29:00.375Z,72.40
2022-12-01T02:31:37.868Z,82.60
2022-12-01T02:34:51.086Z,87.60
2022-12-01T02:37:31.774Z,78.27
2022-12-01T02:40:20.839Z,91.43
2022-12-01T02:43:18.407Z,80.87
2022-12-01T02:45:56.237Z,81.93
2022-12-01T02:48:35.925Z,87.13
2022-12-01T02:51:28.996Z,77.70
2022-12-01T02:53:58.660Z,66.80
2022-12-01T02:56:26.092Z,72.80
2022-12-01T02:58:53.604Z,70.53
2022-12-01T03:01:50.563Z,63.43
2022-12-01T03:04:56.768Z,64.47
2022-12-01T03:07:56.111Z,93.63
2022-12-01T03:10:30.449Z,82.67
2022-12-01T03:13:24.420Z,96.33
2022-12-01T03:16:15.619Z,92.10
2022-12-01T03:19:00.098Z,82.07
2022-12-01T03:21:40.765Z,79.03
2022-12-01T03:24:17.757Z,102.97
2022-12-01T03:26:52.490Z,90.33
2022-12-01T03:29:31.603Z,99.97
2022-12-01T03:32:05.803Z,92.77
2022-12-01T03:35:09.021Z,83.37
2022-12-01T03:37:43.470Z,102.10
2022-12-01T03:40:18.136Z,87.17
2022-12-01T03:42:55.347Z,91.43
2022-12-01T03:45:35.417Z,95.10
2022-12-01T03:48:02.800Z,77.73
2022-12-01T03:50:41.396Z,78.97
2022-12-01T03:53:19.600Z,79.13
2022-12-01T03:55:57.508Z,89.53
2022-12-01T03:58:51.163Z,91.27
2022-12-01T04:01:18.300Z,90.33
2022-12-01T04:03:47.533Z,98.60
2022-12-01T04:06:15.167Z,101.20
2022-12-01T04:08:42.069Z,96.20
2022-12-01T04:11:32.426Z,110.87
2022-12-01T04:13:59.673Z,93.77
2022-12-01T04:16:26.637Z,85.83
2022-12-01T04:18:53.576Z,95.00
2022-12-01T04:21:20.515Z,91.20
2022-12-01T04:24:02.610Z,76.80
2022-12-01T04:26:36.438Z,85.83
2022-12-01T04:29:10.124Z,85.30
2022-12-01T04:31:38.034Z,80.07
2022-12-01T04:34:05.445Z,94.83
2022-12-01T04:36:35.277Z,96.53
2022-12-01T04:39:03.379Z,105.03
2022-12-01T04:41:30.463Z,90.43
2022-12-01T04:43:57.633Z,102.03
2022-12-01T04:46:25.490Z,92.63
2022-12-01T04:48:52.492Z,92.23
2022-12-01T04:51:19.724Z,91.70
2022-12-01T04:53:46.702Z,97.77
2022-12-01T04:56:13.649Z,100.90
2022-12-01T04:58:40.761Z,89.13
2022-12-01T05:01:11.453Z,82.57
2022-12-01T05:03:40.282Z,96.77
2022-12-01T05:06:13.985Z,94.57
2022-12-01T05:08:41.529Z,98.47
2022-12-01T05:11:13.341Z,95.60
2022-12-01T05:13:43.532Z,94.73
2022-12-01T05:16:22.703Z,91.97
2022-12-01T05:19:15.540Z,83.27
2022-12-01T05:21:44.535Z,100.80
2022-12-01T05:24:13.110Z,92.83
2022-12-01T05:26:41.684Z,92.33
2022-12-01T05:29:10.704Z,101.47
2022-12-01T05:31:38.038Z,99.27
2022-12-01T05:34:05.091Z,95.83
2022-12-01T05:36:32.844Z,95.40
2022-12-01T05:38:59.772Z,80.73
2022-12-01T05:41:26.686Z,105.07
2022-12-01T05:43:53.613Z,83.87
2022-12-01T05:46:20.594Z,93.43
2022-12-01T05:48:47.588Z,102.93
2022-12-01T05:51:16.842Z,86.83
2022-12-01T05:53:44.685Z,93.50
2022-12-01T05:56:12.218Z,97.77
2022-12-01T05:58:39.201Z,85.87
2022-12-01T06:01:06.188Z,72.67
2022-12-01T06:03:33.343Z,86.47
2022-12-01T06:06:00.807Z,93.10
2022-12-01T06:08:27.840Z,96.33
2022-12-01T06:10:54.822Z,79.30
2022-12-01T06:13:21.818Z,81.93
2022-12-01T06:16:05.159Z,94.47
2022-12-01T06:18:35.801Z,75.60
2022-12-01T06:21:07.267Z,85.90
2022-12-01T06:23:34.616Z,82.00
2022-12-01T06:26:01.961Z,99.13
2022-12-01T06:28:28.896Z,88.60
2022-12-01T06:31:02.559Z,101.80
2022-12-01T06:33:30.117Z,81.40
2022-12-01T06:36:02.274Z,93.03
2022-12-01T06:38:34.306Z,87.97
2022-12-01T06:41:02.154Z,86.77
2022-12-01T06:43:29.439Z,92.77
2022-12-01T06:46:01.666Z,87.83
2022-12-01T06:48:30.093Z,87.30
2022-12-01T06:51:02.239Z,96.40
2022-12-01T06:53:29.733Z,90.67
2022-12-01T06:56:01.659Z,85.23
2022-12-01T06:58:29.269Z,91.17
2022-12-01T07:00:57.458Z,103.37
2022-12-01T07:03:24.442Z,81.13
2022-12-01T07:06:00.525Z,85.80
2022-12-01T07:08:29.040Z,100.77
2022-12-01T07:11:09.171Z,100.70
2022-12-01T07:13:36.431Z,91.43
2022-12-01T07:16:04.260Z,83.23
2022-12-01T07:18:32.161Z,93.23
2022-12-01T07:21:04.971Z,95.47
2022-12-01T07:23:32.824Z,117.17
2022-12-01T07:26:06.167Z,94.10
2022-12-01T07:28:33.593Z,92.10
2022-12-01T07:31:18.454Z,113.27
2022-12-01T07:33:46.063Z,113.10
2022-12-01T07:36:14.801Z,109.93
2022-12-01T07:38:42.185Z,134.70
2022-12-01T07:41:15.669Z,117.00
2022-12-01T07:43:43.265Z,124.77
2022-12-01T07:46:29.959Z,131.53
2022-12-01T07:48:57.772Z,116.47
2022-12-01T07:51:26.128Z,131.40
2022-12-01T07:53:54.328Z,119.10
2022-12-01T07:56:23.058Z,124.30
2022-12-01T07:58:50.198Z,125.00
2022-12-01T08:01:20.730Z,129.00
2022-12-01T08:03:53.833Z,114.20
2022-12-01T08:06:22.094Z,124.77
2022-12-01T08:08:49.996Z,133.33
2022-12-01T08:11:26.617Z,148.43
2022-12-01T08:13:54.024Z,132.13
2022-12-01T08:16:23.508Z,114.00
2022-12-01T08:18:51.168Z,121.93
2022-12-01T08:21:20.999Z,129.50
2022-12-01T08:23:49.008Z,112.63
2022-12-01T08:26:18.938Z,130.90
2022-12-01T08:28:46.652Z,137.50
2022-12-01T08:31:24.475Z,132.53
2022-12-01T08:33:52.348Z,146.47
2022-12-01T08:36:21.285Z,136.30
2022-12-01T08:38:53.827Z,139.43
2022-12-01T08:41:21.609Z,135.67
2022-12-01T08:44:03.749Z,147.73
2022-12-01T08:46:35.480Z,147.27
2022-12-01T08:49:04.953Z,154.40
2022-12-01T08:51:32.664Z,134.73
2022-12-01T08:54:00.852Z,126.30
2022-12-01T08:56:35.603Z,145.70
2022-12-01T08:59:03.761Z,137.57
2022-12-01T09:01:30.831Z,134.47
2022-12-01T09:04:06.011Z,121.13
2022-12-01T09:06:39.892Z,125.67
2022-12-01T09:09:09.048Z,125.83
2022-12-01T09:11:35.933Z,116.73
2022-12-01T09:14:02.979Z,118.80
2022-12-01T09:16:30.089Z,111.40
2022-12-01T09:18:57.092Z,122.70
2022-12-01T09:21:27.532Z,113.23
2022-12-01T09:23:54.986Z,120.50
2022-12-01T09:26:22.486Z,121.53
2022-12-01T09:28:54.867Z,132.40
2022-12-01T09:31:25.385Z,125.30
2022-12-01T09:34:01.572Z,125.33
2022-12-01T09:36:30.734Z,124.27
2022-12-01T09:38:58.135Z,128.40
2022-12-01T09:41:57.984Z,133.90
2022-12-01T09:44:43.421Z,136.90
2022-12-01T09:47:37.418Z,132.03
2022-12-01T09:50:25.205Z,147.70
2022-12-01T09:53:07.930Z,133.70
2022-12-01T09:55:35.959Z,129.60
2022-12-01T09:58:05.690Z,130.13
2022-12-01T10:00:42.808Z,123.07
2022-12-01T10:03:16.328Z,141.03
2022-12-01T10:06:32.101Z,129.80
2022-12-01T10:09:15.917Z,132.13
2022-12-01T10:11:44.825Z,130.50
2022-12-01T10:14:20.879Z,115.03
2022-12-01T10:17:05.355Z,132.10
2022-12-01T10:19:40.037Z,125.90
2022-12-01T10:22:18.484Z,114.10
2022-12-01T10:25:04.604Z,117.83
2022-12-01T10:28:31.565Z,116.37
2022-12-01T10:31:30.426Z,121.00
2022-12-01T10:34:08.253Z,120.80
2022-12-01T10:36:35.198Z,97.30
2022-12-01T10:39:05.017Z,105.50
2022-12-01T10:41:35.896Z,106.63
2022-12-01T10:44:05.859Z,111.83
2022-12-01T10:46:52.679Z,110.37
2022-12-01T10:49:20.769Z,113.73
2022-12-01T10:51:52.319Z,107.47
2022-12-01T10:54:20.556Z,110.27
2022-12-01T10:56:51.096Z,114.23
2022-12-01T10:59:32.966Z,98.90
2022-12-01T11:02:02.967Z,113.43
2022-12-01T11:04:47.537Z,103.70
2022-12-01T11:07:28.837Z,115.73
2022-12-01T11:10:22.923Z,104.87
2022-12-01T11:12:57.920Z,98.43
2022-12-01T11:15:29.331Z,102.43
2022-12-01T11:18:02.024Z,102.57
2022-12-01T11:20:39.728Z,101.30
2022-12-01T11:23:20.615Z,94.77
2022-12-01T11:25:56.304Z,86.40
2022-12-01T11:28:23.644Z,101.53
2022-12-01T11:30:58.024Z,96.57
2022-12-01T11:33:25.949Z,81.73
2022-12-01T11:35:53.095Z,107.13
2022-12-01T11:38:30.744Z,102.30
2022-12-01T11:40:58.698Z,106.50
2022-12-01T11:43:31.846Z,90.63
2022-12-01T11:46:03.694Z,92.07
2022-12-01T11:48:36.576Z,92.87
2022-12-01T11:51:16.196Z,86.07
2022-12-01T11:53:44.410Z,78.83
2022-12-01T11:56:24.068Z,83.53
2022-12-01T11:59:05.984Z,86.80
2022-12-01T12:02:00.295Z,83.80
2022-12-01T12:04:55.674Z,94.77
2022-12-01T12:08:22.587Z,77.10
2022-12-01T12:11:38.660Z,74.47
2022-12-01T12:14:26.556Z,83.90
2022-12-01T12:17:24.812Z,84.90
2022-12-01T12:20:34.081Z,71.87
2022-12-01T12:23:50.845Z,72.33
2022-12-01T12:26:29.786Z,87.37
2022-12-01T12:29:37.252Z,74.73
2022-12-01T12:32:28.101Z,76.43
2022-12-01T12:35:58.307Z,82.50
2022-12-01T12:38:59.087Z,82.67
2022-12-01T12:41:44.140Z,79.20
2022-12-01T12:44:37.236Z,75.53
2022-12-01T12:47:07.315Z,68.13
2022-12-01T12:50:07.342Z,71.60
2022-12-01T12:52:43.182Z,68.97
2022-12-01T12:55:13.320Z,67.47
2022-12-01T12:57:52.390Z,56.90
2022-12-01T13:00:25.985Z,61.07
2022-12-01T13:03:13.343Z,63.33
2022-12-01T13:05:50.648Z,65.67
2022-12-01T13:08:22.377Z,60.67
2022-12-01T13:11:08.262Z,63.03
2022-12-01T13:13:49.107Z,67.13
2022-12-01T13:16:26.317Z,60.00
2022-12-01T13:19:27.358Z,66.90
2022-12-01T13:21:56.062Z,57.77
2022-12-01T13:24:28.887Z,70.73
2022-12-01T13:27:14.916Z,54.10
2022-12-01T13:29:49.200Z,67.53
2022-12-01T13:32:43.160Z,59.37
2022-12-01T13:35:36.996Z,68.37
2022-12-01T13:38:21.809Z,63.00
2022-12-01T13:40:49.409Z,63.30
2022-12-01T13:43:21.872Z,53.80
2022-12-01T13:45:50.179Z,65.30
2022-12-01T13:48:55.507Z,62.63
2022-12-01T13:51:23.475Z,65.47
2022-12-01T13:54:34.664Z,56.90
2022-12-01T13:57:12.053Z,59.53
2022-12-01T14:00:02.644Z,54.07
2022-12-01T14:02:35.895Z,64.97
2022-12-01T14:05:24.841Z,73.90
2022-12-01T14:07:55.077Z,67.90
2022-12-01T14:10:31.851Z,63.10
2022-12-01T14:13:05.762Z,59.37
2022-12-01T14:15:42.372Z,60.70
2022-12-01T14:18:18.595Z,60.43
2022-12-01T14:20:47.493Z,64.67
2022-12-01T14:23:28.947Z,63.90
2022-12-01T14:26:18.752Z,58.57
2022-12-01T14:29:00.984Z,56.33
2022-12-01T14:31:33.928Z,83.50
2022-12-01T14:34:18.876Z,64.47
2022-12-01T14:36:58.082Z,51.73
2022-12-01T14:39:44.685Z,53.57
2022-12-01T14:42:11.510Z,54.83
2022-12-01T14:44:56.134Z,56.53
2022-12-01T14:47:28.833Z,56.73
2022-12-01T14:50:24.879Z,54.57
2022-12-01T14:53:04.360Z,57.73
2022-12-01T14:55:42.848Z,58.90
2022-12-01T14:58:22.706Z,54.00
2022-12-01T15:01:13.067Z,59.10
2022-12-01T15:03:54.897Z,63.33
2022-12-01T15:06:25.228Z,54.77
2022-12-01T15:12:02.300Z,54.20
2022-12-01T15:14:34.619Z,54.13
2022-12-01T15:17:05.236Z,56.10
2022-12-01T15:19:42.084Z,56.80
2022-12-01T15:22:17.390Z,54.77
2022-12-01T15:24:45.084Z,58.67
2022-12-01T15:27:43.115Z,53.43
2022-12-01T15:30:15.610Z,57.07
2022-12-01T15:32:45.881Z,48.67
2022-12-01T15:35:22.219Z,61.77
2022-12-01T15:37:50.579Z,50.97
2022-12-01T15:43:35.165Z,52.87
2022-12-01T15:46:15.694Z,61.40
2022-12-01T15:48:44.047Z,57.00
2022-12-01T15:51:31.229Z,58.70
2022-12-01T15:54:02.234Z,53.80
2022-12-01T15:56:38.854Z,56.63
2022-12-01T15:59:32.161Z,52.43
2022-12-01T16:01:59.627Z,51.03
2022-12-01T16:04:32.254Z,60.97
2022-12-01T16:07:07.191Z,56.40
2022-12-01T16:09:43.534Z,66.53
2022-12-01T16:12:16.244Z,72.33
2022-12-01T16:15:01.363Z,59.63
2022-12-01T16:17:48.324Z,63.50
2022-12-01T16:20:23.449Z,61.53
2022-12-01T16:23:01.176Z,62.50
2022-12-01T16:25:37.245Z,62.53
2022-12-01T16:28:07.694Z,72.63
2022-12-01T16:30:40.056Z,73.33
2022-12-01T16:33:22.229Z,65.67
2022-12-01T16:35:50.595Z,73.23
2022-12-01T16:38:22.461Z,66.87
2022-12-01T16:40:53.245Z,50.97
2022-12-01T16:43:24.545Z,50.90
2022-12-01T16:46:01.126Z,72.80
2022-12-01T16:48:28.148Z,63.73
2022-12-01T16:50:55.805Z,70.20
2022-12-01T16:53:22.753Z,66.10
2022-12-01T16:55:54.887Z,66.97
2022-12-01T16:58:22.407Z,64.57
2022-12-01T17:00:52.715Z,73.60
2022-12-01T17:03:28.503Z,66.00
2022-12-01T17:05:56.049Z,68.77
2022-12-01T17:08:23.187Z,66.77
2022-12-01T17:10:51.507Z,74.63
2022-12-01T17:13:23.356Z,70.73
2022-12-01T17:15:53.701Z,61.37
2022-12-01T17:18:22.872Z,60.87
2022-12-01T17:21:02.227Z,67.30
2022-12-01T17:23:29.769Z,70.60
2022-12-01T17:25:56.785Z,69.47
2022-12-01T17:28:23.787Z,77.60
2022-12-01T17:30:50.958Z,62.87
2022-12-01T17:33:18.167Z,74.90
2022-12-01T17:35:45.219Z,73.37
2022-12-01T17:38:12.187Z,68.13
2022-12-01T17:40:39.286Z,71.17
2022-12-01T17:43:08.276Z,67.07
2022-12-01T17:45:35.320Z,69.63
2022-12-01T17:48:02.295Z,70.47
2022-12-01T17:50:29.284Z,83.03
2022-12-01T17:52:56.232Z,72.13
2022-12-01T17:55:23.253Z,75.80
2022-12-01T17:57:50.219Z,63.40
2022-12-01T18:00:17.833Z,74.10
2022-12-01T18:02:47.405Z,79.17
2022-12-01T18:05:14.727Z,67.30
2022-12-01T18:07:41.916Z,66.90
2022-12-01T18:10:09.570Z,65.47
2022-12-01T18:12:36.559Z,62.23
2022-12-01T18:15:05.501Z,68.30
2022-12-01T18:17:32.471Z,66.97
2022-12-01T18:19:59.479Z,72.93
2022-12-01T18:22:26.465Z,64.97
2022-12-01T18:24:53.550Z,67.90
2022-12-01T18:27:20.601Z,62.57
2022-12-01T18:29:48.030Z,68.33
2022-12-01T18:32:15.548Z,57.13
2022-12-01T18:34:43.145Z,67.70
2022-12-01T18:37:10.112Z,63.03
2022-12-01T18:39:37.169Z,61.53
2022-12-01T18:42:04.533Z,59.60
2022-12-01T18:44:31.860Z,54.50
2022-12-01T18:46:59.228Z,60.90
2022-12-01T18:49:26.327Z,63.10
2022-12-01T18:51:53.280Z,58.83
2022-12-01T18:54:20.277Z,60.00
2022-12-01T18:56:51.475Z,60.10
2022-12-01T18:59:18.698Z,63.50
2022-12-01T19:01:48.556Z,57.87
2022-12-01T19:04:16.646Z,56.10
2022-12-01T19:06:45.685Z,53.33
2022-12-01T19:09:15.815Z,58.47
2022-12-01T19:11:43.334Z,68.20
2022-12-01T19:14:19.686Z,66.03
2022-12-01T19:16:47.055Z,55.83
2022-12-01T19:19:14.312Z,60.83
2022-12-01T19:21:42.082Z,61.20
2022-12-01T19:24:09.135Z,55.00
2022-12-01T19:26:36.092Z,60.37
2022-12-01T19:29:03.881Z,68.23
2022-12-01T19:31:31.042Z,62.50
2022-12-01T19:33:58.150Z,64.37
2022-12-01T19:36:27.984Z,57.90
2022-12-01T19:38:57.980Z,54.93
2022-12-01T19:41:25.606Z,57.30
2022-12-01T19:43:53.935Z,63.07
2022-12-01T19:46:23.896Z,61.37
2022-12-01T19:48:57.856Z,54.23
2022-12-01T19:51:28.717Z,69.37
2022-12-01T19:53:56.109Z,58.27
2022-12-01T19:56:24.203Z,60.50
2022-12-01T19:58:51.332Z,56.77
2022-12-01T20:01:20.130Z,57.57
2022-12-01T20:03:53.124Z,59.67
2022-12-01T20:06:24.474Z,56.03
2022-12-01T20:08:52.548Z,51.13
2022-12-01T20:11:19.629Z,54.60
2022-12-01T20:13:48.824Z,54.93
2022-12-01T20:16:23.128Z,59.30
2022-12-01T20:18:51.930Z,54.40
2022-12-01T20:21:28.998Z,53.90
2022-12-01T20:24:05.005Z,54.40
2022-12-01T20:26:56.972Z,55.60
2022-12-01T20:29:28.886Z,56.77
2022-12-01T20:31:58.879Z,57.77
2022-12-01T20:34:30.943Z,45.33
2022-12-01T20:36:58.401Z,56.80
2022-12-01T20:39:25.573Z,65.73
2022-12-01T20:41:52.768Z,59.40
2022-12-01T20:44:20.111Z,55.67
2022-12-01T20:46:47.727Z,61.03
2022-12-01T20:49:17.120Z,54.27
2022-12-01T20:51:44.570Z,54.23
2022-12-01T20:54:30.268Z,64.57
2022-12-01T20:56:58.704Z,50.10
2022-12-01T20:59:26.221Z,60.83
2022-12-01T21:01:53.508Z,56.67
2022-12-01T21:04:20.601Z,52.47
2022-12-01T21:06:50.043Z,60.47
2022-12-01T21:09:18.056Z,62.03
2022-12-01T21:12:09.508Z,52.00
2022-12-01T21:14:42.441Z,51.53
2022-12-01T21:17:34.696Z,55.40
2022-12-01T21:20:22.106Z,56.87
2022-12-01T21:22:53.748Z,57.13
2022-12-01T21:25:24.583Z,57.00
2022-12-01T21:27:52.350Z,58.63
2022-12-01T21:30:28.726Z,53.20
2022-12-01T21:33:16.954Z,50.90
2022-12-01T21:35:43.923Z,66.67
2022-12-01T21:38:20.420Z,58.23
2022-12-01T21:40:49.391Z,57.47
2022-12-01T21:43:22.852Z,56.70
2022-12-01T21:46:11.065Z,56.70
2022-12-01T21:48:38.167Z,60.53
2022-12-01T21:51:31.672Z,54.00
2022-12-01T21:53:58.643Z,68.20
2022-12-01T21:56:31.736Z,54.90
2022-12-01T21:59:14.047Z,53.40
2022-12-01T22:01:41.235Z,55.40
2022-12-01T22:04:31.508Z,55.90
2022-12-01T22:06:58.686Z,57.50
2022-12-01T22:09:29.731Z,53.43
2022-12-01T22:12:10.546Z,58.63
2022-12-01T22:14:37.570Z,53.57
2022-12-01T22:17:07.480Z,56.33
2022-12-01T22:19:38.869Z,57.73
2022-12-01T22:22:22.966Z,48.93
2022-12-01T22:24:59.333Z,50.73
2022-12-01T22:27:37.008Z,52.63
2022-12-01T22:30:07.343Z,55.03
2022-12-01T22:32:38.491Z,48.13
2022-12-01T22:35:24.643Z,50.60
2022-12-01T22:37:59.404Z,49.80
2022-12-01T22:40:42.671Z,57.53
2022-12-01T22:43:23.319Z,54.13
2022-12-01T22:46:32.487Z,50.50
2022-12-01T22:49:22.292Z,51.03
2022-12-01T22:52:00.505Z,52.33
2022-12-01T22:54:53.731Z,48.57
2022-12-01T22:57:33.163Z,44.77
2022-12-01T23:00:21.417Z,47.40
2022-12-01T23:02:49.921Z,52.70
2022-12-01T23:05:28.058Z,55.80
2022-12-01T23:07:56.697Z,60.30
2022-12-01T23:10:26.107Z,52.67
2022-12-01T23:12:55.804Z,46.43
2022-12-01T23:15:40.932Z,50.83
2022-12-01T23:18:29.861Z,48.70
2022-12-01T23:21:02.248Z,55.57
2022-12-01T23:23:37.271Z,51.80
2022-12-01T23:26:08.709Z,51.20
2022-12-01T23:28:38.655Z,51.20
2022-12-01T23:31:06.129Z,49.23
2022-12-01T23:33:34.920Z,56.40
2022-12-01T23:36:27.900Z,47.03
2022-12-01T23:39:10.575Z,48.97
2022-12-01T23:41:38.839Z,54.20
2022-12-01T23:44:34.698Z,53.83
2022-12-01T23:47:02.299Z,47.97
2022-12-01T23:49:35.509Z,54.83
2022-12-01T23:52:04.023Z,51.40
2022-12-01T23:54:34.651Z,51.63
2022-12-01T23:57:21.845Z,43.87
2022-12-01T23:59:54.993Z,47.47
